sensor_id;sensor_type;location;lat;lon;timestamp;P1;durP1;ratioP1;P2;durP2;ratioP2
38465;SDS011;24244;51.950;5.902;2023-07-08T00:00:40;6.82;;;1.10;;
38465;SDS011;24244;51.950;5.902;2023-07-08T00:03:08;2.22;;;1.00;;
38465;SDS011;24244;51.950;5.902;2023-07-08T00:05:36;2.40;;;1.13;;
38465;SDS011;24244;51.950;5.902;2023-07-08T00:08:03;2.15;;;0.95;;
38465;SDS011;24244;51.950;5.902;2023-07-08T00:10:30;3.30;;;1.10;;
38465;SDS011;24244;51.950;5.902;2023-07-08T00:12:57;2.45;;;1.00;;
38465;SDS011;24244;51.950;5.902;2023-07-08T00:15:25;2.25;;;1.02;;
38465;SDS011;24244;51.950;5.902;2023-07-08T00:17:54;2.35;;;1.00;;
38465;SDS011;24244;51.950;5.902;2023-07-08T00:20:23;1.90;;;0.90;;
38465;SDS011;24244;51.950;5.902;2023-07-08T00:22:57;2.42;;;1.13;;
38465;SDS011;24244;51.950;5.902;2023-07-08T00:25:27;2.15;;;0.93;;
38465;SDS011;24244;51.950;5.902;2023-07-08T00:27:54;2.42;;;0.82;;
38465;SDS011;24244;51.950;5.902;2023-07-08T00:30:21;2.97;;;1.05;;
38465;SDS011;24244;51.950;5.902;2023-07-08T00:32:51;2.85;;;0.93;;
38465;SDS011;24244;51.950;5.902;2023-07-08T00:35:26;5.10;;;1.08;;
38465;SDS011;24244;51.950;5.902;2023-07-08T00:37:57;3.20;;;1.33;;
38465;SDS011;24244;51.950;5.902;2023-07-08T00:40:28;2.28;;;1.00;;
38465;SDS011;24244;51.950;5.902;2023-07-08T00:42:56;2.20;;;1.00;;
38465;SDS011;24244;51.950;5.902;2023-07-08T00:45:38;2.83;;;1.00;;
38465;SDS011;24244;51.950;5.902;2023-07-08T00:48:28;1.98;;;0.80;;
38465;SDS011;24244;51.950;5.902;2023-07-08T00:51:00;2.47;;;0.80;;
38465;SDS011;24244;51.950;5.902;2023-07-08T00:53:29;1.88;;;0.80;;
38465;SDS011;24244;51.950;5.902;2023-07-08T00:55:59;2.95;;;0.90;;
38465;SDS011;24244;51.950;5.902;2023-07-08T00:58:31;2.22;;;0.90;;
38465;SDS011;24244;51.950;5.902;2023-07-08T01:01:01;2.03;;;0.88;;
38465;SDS011;24244;51.950;5.902;2023-07-08T01:03:31;2.60;;;1.15;;
38465;SDS011;24244;51.950;5.902;2023-07-08T01:06:05;2.28;;;1.00;;
38465;SDS011;24244;51.950;5.902;2023-07-08T01:08:32;4.22;;;1.20;;
38465;SDS011;24244;51.950;5.902;2023-07-08T01:11:00;2.08;;;0.90;;
38465;SDS011;24244;51.950;5.902;2023-07-08T01:13:34;2.42;;;1.00;;
38465;SDS011;24244;51.950;5.902;2023-07-08T01:16:04;2.88;;;0.80;;
38465;SDS011;24244;51.950;5.902;2023-07-08T01:18:32;2.60;;;0.80;;
38465;SDS011;24244;51.950;5.902;2023-07-08T01:21:01;3.38;;;1.40;;
38465;SDS011;24244;51.950;5.902;2023-07-08T01:23:34;1.98;;;0.98;;
38465;SDS011;24244;51.950;5.902;2023-07-08T01:26:02;2.30;;;1.23;;
38465;SDS011;24244;51.950;5.902;2023-07-08T01:28:30;2.15;;;0.90;;
38465;SDS011;24244;51.950;5.902;2023-07-08T01:30:57;3.15;;;1.00;;
38465;SDS011;24244;51.950;5.902;2023-07-08T01:33:25;2.55;;;1.00;;
38465;SDS011;24244;51.950;5.902;2023-07-08T01:35:52;2.10;;;1.20;;
38465;SDS011;24244;51.950;5.902;2023-07-08T01:38:21;2.30;;;1.02;;
38465;SDS011;24244;51.950;5.902;2023-07-08T01:40:54;1.77;;;0.90;;
38465;SDS011;24244;51.950;5.902;2023-07-08T01:43:23;1.83;;;1.00;;
38465;SDS011;24244;51.950;5.902;2023-07-08T01:45:49;2.38;;;1.10;;
38465;SDS011;24244;51.950;5.902;2023-07-08T01:48:19;2.45;;;1.10;;
38465;SDS011;24244;51.950;5.902;2023-07-08T01:50:50;2.65;;;1.15;;
38465;SDS011;24244;51.950;5.902;2023-07-08T01:53:28;1.92;;;1.00;;
38465;SDS011;24244;51.950;5.902;2023-07-08T01:55:57;3.28;;;1.02;;
38465;SDS011;24244;51.950;5.902;2023-07-08T01:58:24;1.70;;;0.70;;
38465;SDS011;24244;51.950;5.902;2023-07-08T02:00:51;2.30;;;1.10;;
38465;SDS011;24244;51.950;5.902;2023-07-08T02:03:17;4.45;;;1.25;;
38465;SDS011;24244;51.950;5.902;2023-07-08T02:05:44;2.67;;;1.00;;
38465;SDS011;24244;51.950;5.902;2023-07-08T02:08:11;2.42;;;1.00;;
38465;SDS011;24244;51.950;5.902;2023-07-08T02:10:39;2.55;;;1.15;;
38465;SDS011;24244;51.950;5.902;2023-07-08T02:13:08;3.50;;;1.52;;
38465;SDS011;24244;51.950;5.902;2023-07-08T02:15:35;2.70;;;1.40;;
38465;SDS011;24244;51.950;5.902;2023-07-08T02:18:02;2.78;;;1.50;;
38465;SDS011;24244;51.950;5.902;2023-07-08T02:20:29;1.80;;;0.93;;
38465;SDS011;24244;51.950;5.902;2023-07-08T02:22:55;2.50;;;1.27;;
38465;SDS011;24244;51.950;5.902;2023-07-08T02:25:22;2.58;;;1.27;;
38465;SDS011;24244;51.950;5.902;2023-07-08T02:27:49;2.72;;;1.17;;
38465;SDS011;24244;51.950;5.902;2023-07-08T02:30:17;2.20;;;1.20;;
38465;SDS011;24244;51.950;5.902;2023-07-08T02:32:44;3.03;;;1.60;;
38465;SDS011;24244;51.950;5.902;2023-07-08T02:35:15;3.00;;;1.48;;
38465;SDS011;24244;51.950;5.902;2023-07-08T02:37:42;4.03;;;1.60;;
38465;SDS011;24244;51.950;5.902;2023-07-08T02:40:09;2.65;;;1.10;;
38465;SDS011;24244;51.950;5.902;2023-07-08T02:42:36;2.58;;;1.40;;
38465;SDS011;24244;51.950;5.902;2023-07-08T02:45:03;3.72;;;1.88;;
38465;SDS011;24244;51.950;5.902;2023-07-08T02:47:32;2.88;;;1.38;;
38465;SDS011;24244;51.950;5.902;2023-07-08T02:49:59;2.30;;;1.10;;
38465;SDS011;24244;51.950;5.902;2023-07-08T02:52:26;2.47;;;1.10;;
38465;SDS011;24244;51.950;5.902;2023-07-08T02:54:53;4.15;;;1.30;;
38465;SDS011;24244;51.950;5.902;2023-07-08T02:57:19;2.60;;;1.42;;
38465;SDS011;24244;51.950;5.902;2023-07-08T02:59:46;2.60;;;1.10;;
38465;SDS011;24244;51.950;5.902;2023-07-08T03:02:13;3.25;;;1.40;;
38465;SDS011;24244;51.950;5.902;2023-07-08T03:04:41;1.80;;;0.98;;
38465;SDS011;24244;51.950;5.902;2023-07-08T03:07:08;3.55;;;1.40;;
38465;SDS011;24244;51.950;5.902;2023-07-08T03:09:40;1.90;;;1.10;;
38465;SDS011;24244;51.950;5.902;2023-07-08T03:12:08;2.05;;;0.90;;
38465;SDS011;24244;51.950;5.902;2023-07-08T03:14:36;2.50;;;1.30;;
38465;SDS011;24244;51.950;5.902;2023-07-08T03:17:05;3.33;;;1.45;;
38465;SDS011;24244;51.950;5.902;2023-07-08T03:19:32;2.53;;;1.13;;
38465;SDS011;24244;51.950;5.902;2023-07-08T03:22:00;2.15;;;1.02;;
38465;SDS011;24244;51.950;5.902;2023-07-08T03:24:31;2.30;;;1.50;;
38465;SDS011;24244;51.950;5.902;2023-07-08T03:26:57;2.80;;;1.27;;
38465;SDS011;24244;51.950;5.902;2023-07-08T03:29:26;3.67;;;1.30;;
38465;SDS011;24244;51.950;5.902;2023-07-08T03:31:53;2.88;;;1.65;;
38465;SDS011;24244;51.950;5.902;2023-07-08T03:34:20;2.83;;;1.40;;
38465;SDS011;24244;51.950;5.902;2023-07-08T03:36:48;2.20;;;1.23;;
38465;SDS011;24244;51.950;5.902;2023-07-08T03:39:17;3.13;;;2.00;;
38465;SDS011;24244;51.950;5.902;2023-07-08T03:41:46;2.33;;;1.23;;
38465;SDS011;24244;51.950;5.902;2023-07-08T03:44:14;2.63;;;1.33;;
38465;SDS011;24244;51.950;5.902;2023-07-08T03:46:42;3.58;;;1.40;;
38465;SDS011;24244;51.950;5.902;2023-07-08T03:49:09;2.88;;;1.08;;
38465;SDS011;24244;51.950;5.902;2023-07-08T03:51:37;2.35;;;1.30;;
38465;SDS011;24244;51.950;5.902;2023-07-08T03:54:06;2.97;;;1.23;;
38465;SDS011;24244;51.950;5.902;2023-07-08T03:56:36;2.40;;;1.10;;
38465;SDS011;24244;51.950;5.902;2023-07-08T03:59:04;2.85;;;1.63;;
38465;SDS011;24244;51.950;5.902;2023-07-08T04:01:30;2.42;;;1.35;;
38465;SDS011;24244;51.950;5.902;2023-07-08T04:03:58;2.25;;;1.55;;
38465;SDS011;24244;51.950;5.902;2023-07-08T04:06:26;1.95;;;1.10;;
38465;SDS011;24244;51.950;5.902;2023-07-08T04:08:53;3.33;;;1.10;;
38465;SDS011;24244;51.950;5.902;2023-07-08T04:11:20;4.03;;;1.58;;
38465;SDS011;24244;51.950;5.902;2023-07-08T04:13:50;2.47;;;1.20;;
38465;SDS011;24244;51.950;5.902;2023-07-08T04:16:18;3.17;;;1.40;;
38465;SDS011;24244;51.950;5.902;2023-07-08T04:18:47;2.05;;;1.10;;
38465;SDS011;24244;51.950;5.902;2023-07-08T04:21:14;3.47;;;1.85;;
38465;SDS011;24244;51.950;5.902;2023-07-08T04:23:44;2.45;;;1.00;;
38465;SDS011;24244;51.950;5.902;2023-07-08T04:26:10;2.50;;;1.27;;
38465;SDS011;24244;51.950;5.902;2023-07-08T04:28:37;3.35;;;1.30;;
38465;SDS011;24244;51.950;5.902;2023-07-08T04:31:05;2.38;;;1.13;;
38465;SDS011;24244;51.950;5.902;2023-07-08T04:33:32;2.08;;;1.27;;
38465;SDS011;24244;51.950;5.902;2023-07-08T04:35:59;3.00;;;1.50;;
38465;SDS011;24244;51.950;5.902;2023-07-08T04:38:26;2.55;;;1.25;;
38465;SDS011;24244;51.950;5.902;2023-07-08T04:40:53;2.42;;;1.30;;
38465;SDS011;24244;51.950;5.902;2023-07-08T04:43:20;3.00;;;1.20;;
38465;SDS011;24244;51.950;5.902;2023-07-08T04:45:48;2.65;;;1.15;;
38465;SDS011;24244;51.950;5.902;2023-07-08T04:48:19;3.22;;;1.23;;
38465;SDS011;24244;51.950;5.902;2023-07-08T04:50:48;3.15;;;1.15;;
38465;SDS011;24244;51.950;5.902;2023-07-08T04:53:17;2.95;;;1.40;;
38465;SDS011;24244;51.950;5.902;2023-07-08T04:55:44;1.98;;;1.25;;
38465;SDS011;24244;51.950;5.902;2023-07-08T04:58:15;3.30;;;1.30;;
38465;SDS011;24244;51.950;5.902;2023-07-08T05:00:42;3.10;;;1.30;;
38465;SDS011;24244;51.950;5.902;2023-07-08T05:03:09;2.22;;;1.45;;
38465;SDS011;24244;51.950;5.902;2023-07-08T05:05:37;3.20;;;1.33;;
38465;SDS011;24244;51.950;5.902;2023-07-08T05:08:05;3.20;;;1.70;;
38465;SDS011;24244;51.950;5.902;2023-07-08T05:10:33;3.85;;;1.30;;
38465;SDS011;24244;51.950;5.902;2023-07-08T05:13:00;2.42;;;1.60;;
38465;SDS011;24244;51.950;5.902;2023-07-08T05:15:27;3.35;;;1.67;;
38465;SDS011;24244;51.950;5.902;2023-07-08T05:17:54;2.97;;;1.25;;
38465;SDS011;24244;51.950;5.902;2023-07-08T05:20:21;3.25;;;1.30;;
38465;SDS011;24244;51.950;5.902;2023-07-08T05:22:50;2.92;;;1.38;;
38465;SDS011;24244;51.950;5.902;2023-07-08T05:25:17;2.50;;;1.20;;
38465;SDS011;24244;51.950;5.902;2023-07-08T05:27:46;2.55;;;1.63;;
38465;SDS011;24244;51.950;5.902;2023-07-08T05:30:15;2.75;;;1.40;;
38465;SDS011;24244;51.950;5.902;2023-07-08T05:32:43;3.40;;;1.45;;
38465;SDS011;24244;51.950;5.902;2023-07-08T05:35:10;4.82;;;1.83;;
38465;SDS011;24244;51.950;5.902;2023-07-08T05:37:37;2.53;;;1.52;;
38465;SDS011;24244;51.950;5.902;2023-07-08T05:40:08;2.80;;;1.60;;
38465;SDS011;24244;51.950;5.902;2023-07-08T05:42:35;2.30;;;1.30;;
38465;SDS011;24244;51.950;5.902;2023-07-08T05:45:02;4.68;;;1.73;;
38465;SDS011;24244;51.950;5.902;2023-07-08T05:47:29;2.92;;;1.10;;
38465;SDS011;24244;51.950;5.902;2023-07-08T05:49:56;7.25;;;1.50;;
38465;SDS011;24244;51.950;5.902;2023-07-08T05:52:24;2.60;;;1.50;;
38465;SDS011;24244;51.950;5.902;2023-07-08T05:54:50;2.13;;;1.20;;
38465;SDS011;24244;51.950;5.902;2023-07-08T05:57:19;2.80;;;1.60;;
38465;SDS011;24244;51.950;5.902;2023-07-08T05:59:46;2.78;;;1.60;;
38465;SDS011;24244;51.950;5.902;2023-07-08T06:02:12;3.05;;;1.13;;
38465;SDS011;24244;51.950;5.902;2023-07-08T06:04:39;2.35;;;1.40;;
38465;SDS011;24244;51.950;5.902;2023-07-08T06:07:06;3.15;;;1.52;;
38465;SDS011;24244;51.950;5.902;2023-07-08T06:09:33;2.63;;;1.33;;
38465;SDS011;24244;51.950;5.902;2023-07-08T06:12:00;4.40;;;1.80;;
38465;SDS011;24244;51.950;5.902;2023-07-08T06:14:29;4.43;;;1.20;;
38465;SDS011;24244;51.950;5.902;2023-07-08T06:16:57;2.63;;;1.13;;
38465;SDS011;24244;51.950;5.902;2023-07-08T06:19:24;3.17;;;1.27;;
38465;SDS011;24244;51.950;5.902;2023-07-08T06:21:51;3.00;;;1.20;;
38465;SDS011;24244;51.950;5.902;2023-07-08T06:24:17;2.65;;;1.20;;
38465;SDS011;24244;51.950;5.902;2023-07-08T06:26:44;2.90;;;1.40;;
38465;SDS011;24244;51.950;5.902;2023-07-08T06:29:24;2.35;;;1.42;;
38465;SDS011;24244;51.950;5.902;2023-07-08T06:31:53;3.53;;;1.80;;
38465;SDS011;24244;51.950;5.902;2023-07-08T06:34:20;2.92;;;1.42;;
38465;SDS011;24244;51.950;5.902;2023-07-08T06:36:51;2.42;;;1.40;;
38465;SDS011;24244;51.950;5.902;2023-07-08T06:39:18;2.08;;;1.15;;
38465;SDS011;24244;51.950;5.902;2023-07-08T06:41:45;3.05;;;1.20;;
38465;SDS011;24244;51.950;5.902;2023-07-08T06:44:12;2.95;;;1.52;;
38465;SDS011;24244;51.950;5.902;2023-07-08T06:46:39;2.50;;;1.15;;
38465;SDS011;24244;51.950;5.902;2023-07-08T06:49:08;2.72;;;1.40;;
38465;SDS011;24244;51.950;5.902;2023-07-08T06:51:36;2.80;;;1.30;;
38465;SDS011;24244;51.950;5.902;2023-07-08T06:54:02;2.78;;;1.30;;
38465;SDS011;24244;51.950;5.902;2023-07-08T06:56:37;3.25;;;1.70;;
38465;SDS011;24244;51.950;5.902;2023-07-08T06:59:05;2.42;;;1.02;;
38465;SDS011;24244;51.950;5.902;2023-07-08T07:01:32;3.80;;;1.50;;
38465;SDS011;24244;51.950;5.902;2023-07-08T07:04:00;2.75;;;1.00;;
38465;SDS011;24244;51.950;5.902;2023-07-08T07:06:29;2.40;;;1.30;;
38465;SDS011;24244;51.950;5.902;2023-07-08T07:08:56;2.85;;;1.33;;
38465;SDS011;24244;51.950;5.902;2023-07-08T07:11:23;3.20;;;1.67;;
38465;SDS011;24244;51.950;5.902;2023-07-08T07:13:51;2.67;;;1.30;;
38465;SDS011;24244;51.950;5.902;2023-07-08T07:16:18;2.40;;;1.10;;
38465;SDS011;24244;51.950;5.902;2023-07-08T07:18:44;2.40;;;1.48;;
38465;SDS011;24244;51.950;5.902;2023-07-08T07:21:11;2.85;;;1.50;;
38465;SDS011;24244;51.950;5.902;2023-07-08T07:23:39;2.53;;;1.20;;
38465;SDS011;24244;51.950;5.902;2023-07-08T07:26:06;3.10;;;1.35;;
38465;SDS011;24244;51.950;5.902;2023-07-08T07:28:33;3.05;;;1.30;;
38465;SDS011;24244;51.950;5.902;2023-07-08T07:31:01;3.45;;;1.58;;
38465;SDS011;24244;51.950;5.902;2023-07-08T07:33:28;3.63;;;1.65;;
38465;SDS011;24244;51.950;5.902;2023-07-08T07:35:57;4.00;;;1.85;;
38465;SDS011;24244;51.950;5.902;2023-07-08T07:38:25;3.15;;;1.20;;
38465;SDS011;24244;51.950;5.902;2023-07-08T07:40:56;2.45;;;1.15;;
38465;SDS011;24244;51.950;5.902;2023-07-08T07:43:26;4.00;;;2.03;;
38465;SDS011;24244;51.950;5.902;2023-07-08T07:45:53;3.28;;;1.35;;
38465;SDS011;24244;51.950;5.902;2023-07-08T07:48:20;2.67;;;1.50;;
38465;SDS011;24244;51.950;5.902;2023-07-08T07:50:47;2.88;;;1.52;;
38465;SDS011;24244;51.950;5.902;2023-07-08T07:53:16;2.17;;;1.20;;
38465;SDS011;24244;51.950;5.902;2023-07-08T07:55:43;3.10;;;1.52;;
38465;SDS011;24244;51.950;5.902;2023-07-08T07:58:11;2.80;;;1.40;;
38465;SDS011;24244;51.950;5.902;2023-07-08T08:00:38;3.58;;;1.30;;
38465;SDS011;24244;51.950;5.902;2023-07-08T08:03:05;3.90;;;1.60;;
38465;SDS011;24244;51.950;5.902;2023-07-08T08:05:32;3.30;;;1.55;;
38465;SDS011;24244;51.950;5.902;2023-07-08T08:07:59;2.92;;;1.42;;
38465;SDS011;24244;51.950;5.902;2023-07-08T08:10:26;2.90;;;1.55;;
38465;SDS011;24244;51.950;5.902;2023-07-08T08:12:52;3.30;;;1.45;;
38465;SDS011;24244;51.950;5.902;2023-07-08T08:15:22;3.90;;;1.67;;
38465;SDS011;24244;51.950;5.902;2023-07-08T08:17:49;2.40;;;1.23;;
38465;SDS011;24244;51.950;5.902;2023-07-08T08:20:19;4.68;;;1.73;;
38465;SDS011;24244;51.950;5.902;2023-07-08T08:22:47;3.65;;;1.58;;
38465;SDS011;24244;51.950;5.902;2023-07-08T08:25:14;5.38;;;1.50;;
38465;SDS011;24244;51.950;5.902;2023-07-08T08:27:41;3.00;;;1.30;;
38465;SDS011;24244;51.950;5.902;2023-07-08T08:30:08;3.40;;;1.50;;
38465;SDS011;24244;51.950;5.902;2023-07-08T08:32:37;2.58;;;1.33;;
38465;SDS011;24244;51.950;5.902;2023-07-08T08:35:05;3.15;;;1.40;;
38465;SDS011;24244;51.950;5.902;2023-07-08T08:37:32;3.53;;;1.55;;
38465;SDS011;24244;51.950;5.902;2023-07-08T08:39:59;2.88;;;1.60;;
38465;SDS011;24244;51.950;5.902;2023-07-08T08:42:26;3.25;;;1.67;;
38465;SDS011;24244;51.950;5.902;2023-07-08T08:44:56;3.00;;;1.60;;
38465;SDS011;24244;51.950;5.902;2023-07-08T08:47:29;2.90;;;1.40;;
38465;SDS011;24244;51.950;5.902;2023-07-08T08:50:18;3.15;;;1.77;;
38465;SDS011;24244;51.950;5.902;2023-07-08T08:52:52;4.10;;;2.50;;
38465;SDS011;24244;51.950;5.902;2023-07-08T08:55:22;3.30;;;1.75;;
38465;SDS011;24244;51.950;5.902;2023-07-08T08:57:54;3.47;;;1.90;;
38465;SDS011;24244;51.950;5.902;2023-07-08T09:00:28;5.65;;;2.13;;
38465;SDS011;24244;51.950;5.902;2023-07-08T09:03:07;3.28;;;1.60;;
38465;SDS011;24244;51.950;5.902;2023-07-08T09:05:41;3.13;;;1.83;;
38465;SDS011;24244;51.950;5.902;2023-07-08T09:08:11;2.95;;;1.70;;
38465;SDS011;24244;51.950;5.902;2023-07-08T09:10:43;3.75;;;1.90;;
38465;SDS011;24244;51.950;5.902;2023-07-08T09:13:15;4.18;;;1.98;;
38465;SDS011;24244;51.950;5.902;2023-07-08T09:15:48;3.47;;;1.50;;
38465;SDS011;24244;51.950;5.902;2023-07-08T09:18:26;5.55;;;2.30;;
38465;SDS011;24244;51.950;5.902;2023-07-08T09:21:00;4.05;;;1.50;;
38465;SDS011;24244;51.950;5.902;2023-07-08T09:23:39;4.95;;;1.85;;
38465;SDS011;24244;51.950;5.902;2023-07-08T09:26:09;3.17;;;1.65;;
38465;SDS011;24244;51.950;5.902;2023-07-08T09:28:42;3.10;;;1.80;;
38465;SDS011;24244;51.950;5.902;2023-07-08T09:31:16;3.15;;;1.60;;
38465;SDS011;24244;51.950;5.902;2023-07-08T09:33:50;4.53;;;2.20;;
38465;SDS011;24244;51.950;5.902;2023-07-08T09:36:22;4.97;;;2.10;;
38465;SDS011;24244;51.950;5.902;2023-07-08T09:38:50;5.30;;;2.40;;
38465;SDS011;24244;51.950;5.902;2023-07-08T09:41:32;4.53;;;2.35;;
38465;SDS011;24244;51.950;5.902;2023-07-08T09:44:12;4.38;;;1.90;;
38465;SDS011;24244;51.950;5.902;2023-07-08T09:46:42;3.03;;;1.65;;
38465;SDS011;24244;51.950;5.902;2023-07-08T09:49:15;3.85;;;1.85;;
38465;SDS011;24244;51.950;5.902;2023-07-08T09:51:45;5.53;;;1.75;;
38465;SDS011;24244;51.950;5.902;2023-07-08T09:54:12;4.55;;;2.70;;
38465;SDS011;24244;51.950;5.902;2023-07-08T09:56:40;4.00;;;1.80;;
38465;SDS011;24244;51.950;5.902;2023-07-08T09:59:11;4.63;;;2.20;;
38465;SDS011;24244;51.950;5.902;2023-07-08T10:01:41;3.67;;;2.17;;
38465;SDS011;24244;51.950;5.902;2023-07-08T10:04:08;5.05;;;2.08;;
38465;SDS011;24244;51.950;5.902;2023-07-08T10:06:35;4.05;;;2.33;;
38465;SDS011;24244;51.950;5.902;2023-07-08T10:09:05;4.15;;;1.90;;
38465;SDS011;24244;51.950;5.902;2023-07-08T10:11:39;4.88;;;2.55;;
38465;SDS011;24244;51.950;5.902;2023-07-08T10:14:13;4.05;;;2.10;;
38465;SDS011;24244;51.950;5.902;2023-07-08T10:16:52;4.43;;;2.22;;
38465;SDS011;24244;51.950;5.902;2023-07-08T10:19:19;4.88;;;2.33;;
38465;SDS011;24244;51.950;5.902;2023-07-08T10:21:48;6.45;;;2.38;;
38465;SDS011;24244;51.950;5.902;2023-07-08T10:24:27;5.13;;;2.30;;
38465;SDS011;24244;51.950;5.902;2023-07-08T10:27:07;3.95;;;2.05;;
38465;SDS011;24244;51.950;5.902;2023-07-08T10:29:41;4.70;;;2.22;;
38465;SDS011;24244;51.950;5.902;2023-07-08T10:32:18;4.07;;;2.35;;
38465;SDS011;24244;51.950;5.902;2023-07-08T10:34:55;3.58;;;1.90;;
38465;SDS011;24244;51.950;5.902;2023-07-08T10:37:28;4.10;;;2.30;;
38465;SDS011;24244;51.950;5.902;2023-07-08T10:40:12;4.22;;;2.30;;
38465;SDS011;24244;51.950;5.902;2023-07-08T10:42:51;3.97;;;2.38;;
38465;SDS011;24244;51.950;5.902;2023-07-08T10:45:29;4.28;;;2.15;;
38465;SDS011;24244;51.950;5.902;2023-07-08T10:48:08;4.38;;;1.98;;
38465;SDS011;24244;51.950;5.902;2023-07-08T10:50:53;4.63;;;2.33;;
38465;SDS011;24244;51.950;5.902;2023-07-08T10:56:05;5.15;;;2.42;;
38465;SDS011;24244;51.950;5.902;2023-07-08T10:58:44;3.85;;;2.13;;
38465;SDS011;24244;51.950;5.902;2023-07-08T11:01:28;4.20;;;2.20;;
38465;SDS011;24244;51.950;5.902;2023-07-08T11:04:12;3.45;;;2.13;;
38465;SDS011;24244;51.950;5.902;2023-07-08T11:06:54;4.20;;;2.38;;
38465;SDS011;24244;51.950;5.902;2023-07-08T11:09:26;3.92;;;2.13;;
38465;SDS011;24244;51.950;5.902;2023-07-08T11:12:00;5.55;;;2.40;;
38465;SDS011;24244;51.950;5.902;2023-07-08T11:14:33;3.83;;;2.20;;
38465;SDS011;24244;51.950;5.902;2023-07-08T11:17:10;4.22;;;1.95;;
38465;SDS011;24244;51.950;5.902;2023-07-08T11:19:47;3.97;;;2.35;;
38465;SDS011;24244;51.950;5.902;2023-07-08T11:22:20;6.30;;;2.42;;
38465;SDS011;24244;51.950;5.902;2023-07-08T11:24:48;4.65;;;2.47;;
38465;SDS011;24244;51.950;5.902;2023-07-08T11:27:21;3.90;;;2.00;;
38465;SDS011;24244;51.950;5.902;2023-07-08T11:29:54;4.63;;;2.25;;
38465;SDS011;24244;51.950;5.902;2023-07-08T11:32:24;4.28;;;2.00;;
38465;SDS011;24244;51.950;5.902;2023-07-08T11:34:53;4.55;;;2.20;;
38465;SDS011;24244;51.950;5.902;2023-07-08T11:37:23;4.90;;;2.58;;
38465;SDS011;24244;51.950;5.902;2023-07-08T11:39:53;4.32;;;2.40;;
38465;SDS011;24244;51.950;5.902;2023-07-08T11:42:23;3.45;;;1.90;;
38465;SDS011;24244;51.950;5.902;2023-07-08T11:44:59;4.95;;;2.45;;
38465;SDS011;24244;51.950;5.902;2023-07-08T11:47:31;3.83;;;2.30;;
38465;SDS011;24244;51.950;5.902;2023-07-08T11:50:01;4.32;;;2.80;;
38465;SDS011;24244;51.950;5.902;2023-07-08T11:52:29;5.03;;;2.60;;
38465;SDS011;24244;51.950;5.902;2023-07-08T11:54:57;4.72;;;2.20;;
38465;SDS011;24244;51.950;5.902;2023-07-08T11:57:30;5.95;;;2.80;;
38465;SDS011;24244;51.950;5.902;2023-07-08T12:00:12;4.43;;;2.60;;
38465;SDS011;24244;51.950;5.902;2023-07-08T12:02:53;4.95;;;2.58;;
38465;SDS011;24244;51.950;5.902;2023-07-08T12:05:29;5.32;;;2.47;;
38465;SDS011;24244;51.950;5.902;2023-07-08T12:08:00;5.03;;;2.55;;
38465;SDS011;24244;51.950;5.902;2023-07-08T12:10:33;4.68;;;2.63;;
38465;SDS011;24244;51.950;5.902;2023-07-08T12:13:05;5.97;;;2.90;;
38465;SDS011;24244;51.950;5.902;2023-07-08T12:15:37;4.63;;;2.42;;
38465;SDS011;24244;51.950;5.902;2023-07-08T12:18:06;4.43;;;2.40;;
38465;SDS011;24244;51.950;5.902;2023-07-08T12:20:39;5.18;;;2.67;;
38465;SDS011;24244;51.950;5.902;2023-07-08T12:23:09;5.85;;;2.70;;
38465;SDS011;24244;51.950;5.902;2023-07-08T12:25:38;4.45;;;2.45;;
38465;SDS011;24244;51.950;5.902;2023-07-08T12:28:06;3.58;;;2.35;;
38465;SDS011;24244;51.950;5.902;2023-07-08T12:30:32;5.65;;;2.83;;
38465;SDS011;24244;51.950;5.902;2023-07-08T12:33:00;3.55;;;2.10;;
38465;SDS011;24244;51.950;5.902;2023-07-08T12:35:28;4.68;;;2.45;;
38465;SDS011;24244;51.950;5.902;2023-07-08T12:37:58;4.65;;;2.40;;
38465;SDS011;24244;51.950;5.902;2023-07-08T12:40:28;3.55;;;2.15;;
38465;SDS011;24244;51.950;5.902;2023-07-08T12:42:56;6.20;;;2.35;;
38465;SDS011;24244;51.950;5.902;2023-07-08T12:45:28;4.78;;;2.53;;
38465;SDS011;24244;51.950;5.902;2023-07-08T12:47:57;3.20;;;1.83;;
38465;SDS011;24244;51.950;5.902;2023-07-08T12:50:24;4.55;;;2.22;;
38465;SDS011;24244;51.950;5.902;2023-07-08T12:52:50;4.43;;;2.58;;
38465;SDS011;24244;51.950;5.902;2023-07-08T12:55:17;5.28;;;2.42;;
38465;SDS011;24244;51.950;5.902;2023-07-08T12:57:47;5.00;;;2.22;;
38465;SDS011;24244;51.950;5.902;2023-07-08T13:00:22;4.50;;;2.55;;
38465;SDS011;24244;51.950;5.902;2023-07-08T13:02:55;5.32;;;2.45;;
38465;SDS011;24244;51.950;5.902;2023-07-08T13:05:24;4.43;;;2.15;;
38465;SDS011;24244;51.950;5.902;2023-07-08T13:07:53;4.00;;;2.28;;
38465;SDS011;24244;51.950;5.902;2023-07-08T13:10:21;5.70;;;2.40;;
38465;SDS011;24244;51.950;5.902;2023-07-08T13:12:51;4.47;;;2.47;;
38465;SDS011;24244;51.950;5.902;2023-07-08T13:15:29;5.00;;;2.25;;
38465;SDS011;24244;51.950;5.902;2023-07-08T13:18:01;5.32;;;2.63;;
38465;SDS011;24244;51.950;5.902;2023-07-08T13:20:29;4.53;;;2.63;;
38465;SDS011;24244;51.950;5.902;2023-07-08T13:22:58;5.05;;;2.58;;
38465;SDS011;24244;51.950;5.902;2023-07-08T13:25:27;6.20;;;2.53;;
38465;SDS011;24244;51.950;5.902;2023-07-08T13:27:56;5.03;;;2.60;;
38465;SDS011;24244;51.950;5.902;2023-07-08T13:30:25;4.55;;;2.15;;
38465;SDS011;24244;51.950;5.902;2023-07-08T13:32:54;4.72;;;2.53;;
38465;SDS011;24244;51.950;5.902;2023-07-08T13:35:24;4.32;;;2.47;;
38465;SDS011;24244;51.950;5.902;2023-07-08T13:37:53;5.10;;;2.50;;
38465;SDS011;24244;51.950;5.902;2023-07-08T13:40:22;4.47;;;2.40;;
38465;SDS011;24244;51.950;5.902;2023-07-08T13:42:52;4.97;;;2.72;;
38465;SDS011;24244;51.950;5.902;2023-07-08T13:45:22;4.68;;;2.35;;
38465;SDS011;24244;51.950;5.902;2023-07-08T13:47:58;4.13;;;2.42;;
38465;SDS011;24244;51.950;5.902;2023-07-08T13:50:29;5.00;;;2.38;;
38465;SDS011;24244;51.950;5.902;2023-07-08T13:53:03;4.47;;;2.45;;
38465;SDS011;24244;51.950;5.902;2023-07-08T13:55:41;5.10;;;2.25;;
38465;SDS011;24244;51.950;5.902;2023-07-08T13:58:13;4.15;;;2.22;;
38465;SDS011;24244;51.950;5.902;2023-07-08T14:00:42;4.10;;;2.28;;
38465;SDS011;24244;51.950;5.902;2023-07-08T14:03:15;3.65;;;2.20;;
38465;SDS011;24244;51.950;5.902;2023-07-08T14:05:45;4.43;;;2.47;;
38465;SDS011;24244;51.950;5.902;2023-07-08T14:08:13;4.03;;;2.00;;
38465;SDS011;24244;51.950;5.902;2023-07-08T14:10:41;4.45;;;2.65;;
38465;SDS011;24244;51.950;5.902;2023-07-08T14:13:09;4.40;;;2.17;;
38465;SDS011;24244;51.950;5.902;2023-07-08T14:15:37;3.95;;;2.20;;
38465;SDS011;24244;51.950;5.902;2023-07-08T14:18:05;4.38;;;2.40;;
38465;SDS011;24244;51.950;5.902;2023-07-08T14:20:32;4.03;;;2.17;;
38465;SDS011;24244;51.950;5.902;2023-07-08T14:23:00;4.30;;;1.90;;
38465;SDS011;24244;51.950;5.902;2023-07-08T14:25:27;4.07;;;2.50;;
38465;SDS011;24244;51.950;5.902;2023-07-08T14:27:54;5.20;;;2.40;;
38465;SDS011;24244;51.950;5.902;2023-07-08T14:30:20;5.22;;;2.33;;
38465;SDS011;24244;51.950;5.902;2023-07-08T14:32:48;4.50;;;2.47;;
38465;SDS011;24244;51.950;5.902;2023-07-08T14:35:16;4.55;;;2.25;;
38465;SDS011;24244;51.950;5.902;2023-07-08T14:37:45;4.88;;;2.40;;
38465;SDS011;24244;51.950;5.902;2023-07-08T14:40:21;4.63;;;2.58;;
38465;SDS011;24244;51.950;5.902;2023-07-08T14:42:53;4.75;;;2.28;;
38465;SDS011;24244;51.950;5.902;2023-07-08T14:45:24;4.13;;;2.33;;
38465;SDS011;24244;51.950;5.902;2023-07-08T14:47:51;4.88;;;2.53;;
38465;SDS011;24244;51.950;5.902;2023-07-08T14:50:18;3.88;;;1.90;;
38465;SDS011;24244;51.950;5.902;2023-07-08T14:52:45;4.88;;;2.25;;
38465;SDS011;24244;51.950;5.902;2023-07-08T14:55:12;4.78;;;2.42;;
38465;SDS011;24244;51.950;5.902;2023-07-08T14:57:42;3.30;;;1.70;;
38465;SDS011;24244;51.950;5.902;2023-07-08T15:00:13;4.43;;;2.20;;
38465;SDS011;24244;51.950;5.902;2023-07-08T15:02:43;4.05;;;2.05;;
38465;SDS011;24244;51.950;5.902;2023-07-08T15:05:15;4.50;;;2.45;;